• Join FlightAware (Why Join?)
  • Login
  • US Flag 
Rudolph Flight #1: Arrived! 
07:36AM EST


 

Airport Tracker/Info


-or-


 

Live Flight TrackerFlight Track Log ✈ SWA1021 ✈ 04-Jan-2014 ✈ KFLL - TJSJ / SJU

Flight Track Log - Related Links

Times and Time Zones

All times are in EST time to prevent confusion due to time zone crossing. See the SWA1021 flight status page for this flight to view local times or setup timezone preferences in your user account.

Time Position Orientation Groundspeed Altitude Reporting Facility
EST Latitude Longitude Course Direction KTS MPH feet Rate Location/Type
11:09AM 26.0750 -80.1319 83° East 167 192 1,000  Level Miami Center
11:10AM 26.0803 -80.0814 83° East 191 220 2,500 1,560 Climbing Miami Center
11:11AM 26.0881 -80.0122 83° East 237 273 4,100 1,740 Climbing Miami Center
11:12AM 26.0919 -79.9358 87° East 276 318 6,000 1,920 Climbing Miami Center
11:12AM 26.0861 -79.9103 104° East 277 319 6,200 840 Climbing Miami Center
11:13AM 26.0708 -79.8336 102° East 300 345 7,000 1,320 Climbing Miami Center
11:14AM 26.0581 -79.7500 100° East 294 338 8,900 900 Climbing Miami Center
11:15AM 26.0367 -79.6617 105° East 289 333 8,900 420 Level Miami Center
11:16AM 26.0175 -79.5756 104° East 284 327 9,800 1,620 Climbing Miami Center
11:17AM 25.9942 -79.4803 105° East 296 341 12,200 2,580 Climbing Miami Center
11:18AM 25.9750 -79.3853 103° East 331 381 15,100 2,940 Climbing Miami Center
11:19AM 25.9581 -79.2669 99° East 347 399 18,100 2,400 Climbing Miami Center
11:20AM 25.9475 -79.1442 95° East 374 430 19,900 2,100 Climbing Miami Center
11:21AM 25.9369 -79.0192 95° East 393 452 22,400 2,040 Climbing Miami Center
11:22AM 25.9281 -78.9058 95° East 400 460 24,000 1,680 Climbing Miami Center
11:23AM 25.9278 -78.7719 90° East 417 480 25,800 1,680 Climbing Miami Center
11:24AM 25.9192 -78.6286 94° East 446 513 27,400 1,560 Climbing Miami Center
11:25AM 25.8747 -78.4964 110° East 451 519 29,000 1,500 Climbing Miami Center
11:26AM 25.8069 -78.3731 121° Southeast 451 519 30,400 1,440 Climbing Miami Center
11:27AM 25.7372 -78.2453 121° Southeast 463 533 31,900 1,680 Climbing Miami Center
11:28AM 25.6714 -78.1244 121° Southeast 463 533 33,800 1,680 Climbing Miami Center
11:29AM 25.6056 -77.9994 120° Southeast 468 539 35,400 1,380 Climbing Miami Center
11:30AM 25.5375 -77.8792 122° Southeast 468 539 36,700 1,080 Climbing Miami Center
11:31AM 25.4694 -77.7564 122° Southeast 468 539 37,600 780 Climbing Miami Center
11:32AM 25.3969 -77.6203 121° Southeast 473 544 38,300 660 Climbing Miami Center
11:33AM 25.3267 -77.4933 121° Southeast 479 551 39,000 300 Climbing Miami Center
11:34AM 25.2622 -77.3781 122° Southeast 479 551 39,000  Level Miami Center
11:35AM 25.1917 -77.2539 122° Southeast 479 551 39,000  Level Miami Center
11:36AM 25.1208 -77.1319 123° Southeast 479 551 39,000  Level Miami Center
11:37AM 25.0519 -77.0056 121° Southeast 479 551 39,000  Level Miami Center
11:38AM 24.9831 -76.8839 122° Southeast 474 545 39,000  Level Miami Center
11:39AM 24.9119 -76.7625 123° Southeast 474 545 39,000  Level Miami Center
11:40AM 24.8428 -76.6367 121° Southeast 474 545 39,000  Level Miami Center
11:41AM 24.7736 -76.5178 123° Southeast 474 545 39,000  Level Miami Center
11:42AM 24.7022 -76.3922 122° Southeast 474 545 39,000  Level Miami Center
11:43AM 24.6328 -76.2711 122° Southeast 474 545 39,000  Level Miami Center
11:44AM 24.5633 -76.1483 122° Southeast 474 545 39,000  Level Miami Center
11:45AM 24.4917 -76.0275 123° Southeast 474 545 39,000  Level Miami Center
11:46AM 24.4197 -75.9025 122° Southeast 479 551 39,000  Level Miami Center
11:47AM 24.3500 -75.7800 122° Southeast 479 551 39,000  Level Miami Center
11:48AM 24.2822 -75.6597 122° Southeast 474 545 39,000  Level Miami Center
11:49AM 24.2081 -75.5350 123° Southeast 479 551 39,000  Level Miami Center
11:50AM 24.1378 -75.4128 122° Southeast 479 551 39,000  Level Miami Center
11:51AM 24.0678 -75.2886 122° Southeast 474 545 39,000  Level Miami Center
11:52AM 23.9953 -75.1667 123° Southeast 479 551 39,000  Level Miami Center
11:53AM 23.9228 -75.0447 123° Southeast 474 545 39,000  Level Miami Center
11:54AM 23.8503 -74.9208 123° Southeast 474 545 39,000  Level Miami Center
11:55AM 23.7711 -74.7883 123° Southeast 474 545 39,000  Level Miami Center
11:56AM 23.6983 -74.6647 123° Southeast 479 551 39,000  Level Miami Center
11:57AM 23.6256 -74.5456 124° Southeast 479 551 39,000  Level Miami Center
11:58AM 23.5525 -74.4225 123° Southeast 479 551 39,000  Level Miami Center
11:59AM 23.4814 -74.3014 123° Southeast 479 551 39,000  Level Miami Center
12:00PM 23.4083 -74.1806 123° Southeast 479 551 39,000  Level Miami Center
12:01PM 23.3372 -74.0622 123° Southeast 473 544 39,000  Level Miami Center
12:02PM 23.2661 -73.9439 123° Southeast 473 544 39,000  Level Miami Center
12:03PM 23.1947 -73.8236 123° Southeast 473 544 39,000  Level Miami Center
12:04PM 23.1253 -73.7056 123° Southeast 473 544 39,000  Level Miami Center
12:05PM 23.0539 -73.5878 123° Southeast 473 544 39,000  Level Miami Center
12:06PM 22.9803 -73.4700 124° Southeast 473 544 39,000  Level Miami Center
12:07PM 22.8983 -73.3506 127° Southeast 478 550 39,000  Level Miami Center
12:08PM 22.8306 -73.2306 121° Southeast 478 550 39,000  Level Miami Center
12:09PM 22.7631 -73.1108 121° Southeast 473 544 39,000  Level Miami Center
12:10PM 22.6931 -72.9892 122° Southeast 473 544 39,000  Level Miami Center
12:11PM 22.6192 -72.8722 124° Southeast 478 550 39,000  Level Miami Center
12:12PM 22.5447 -72.7508 124° Southeast 478 550 39,000  Level Miami Center
12:13PM 22.4728 -72.6364 124° Southeast 478 550 39,000  Level Miami Center
12:14PM 22.4006 -72.5150 123° Southeast 478 550 39,000  Level Miami Center
12:15PM 22.3239 -72.3942 124° Southeast 478 550 39,000  Level Miami Center
12:16PM 22.2536 -72.2756 123° Southeast 478 550 39,000  Level Miami Center
12:17PM 22.1789 -72.1572 124° Southeast 478 550 39,000  Level Miami Center
12:18PM 22.1044 -72.0411 125° Southeast 478 550 39,000  Level Miami Center
12:19PM 22.0317 -71.9206 123° Southeast 478 550 39,000  Level Miami Center
12:20PM 21.9700 -71.8244 125° Southeast 478 550 39,000  Level Miami Center
12:21PM 21.8972 -71.7067 124° Southeast 478 550 39,000  Level Miami Center
12:22PM 21.8156 -71.5778 124° Southeast 478 550 39,000  Level Miami Center
12:23PM 21.7403 -71.4558 124° Southeast 478 550 39,000  Level Miami Center
12:24PM 21.6672 -71.3383 124° Southeast 478 550 39,000  Level Miami Center
12:25PM 21.5942 -71.2186 123° Southeast 478 550 39,000  Level Miami Center
12:26PM 21.5100 -71.0861 124° Southeast 478 550 39,000  Level Miami Center
12:27PM 21.4522 -70.9928 124° Southeast 478 550 39,000  Level Miami Center
12:31PM 21.1300 -70.4914 125° Southeast 475 547 39,000  Level Miami Center
12:32PM 21.0542 -70.3750 125° Southeast 475 547 39,000  Level Miami Center
12:33PM 20.9803 -70.2567 124° Southeast 475 547 39,000  Level Miami Center
12:34PM 20.9064 -70.1381 124° Southeast 475 547 39,000  Level Miami Center
12:35PM 20.8306 -70.0244 126° Southeast 475 547 39,000  Level Miami Center
12:36PM 20.8960 -70.1264 124° Southeast  Level FlightAware Approximate
12:36PM 20.7567 -69.9064 124° Southeast 475 547 39,000  Level Miami Center
12:37PM 20.8278 -70.0212 125° Southeast  Level FlightAware Approximate
12:37PM 20.6783 -69.7886 125° Southeast 480 552 39,000  Level Miami Center
12:38PM 20.6044 -69.6750 125° Southeast 475 547 39,000  Level Miami Center
12:39PM 20.5281 -69.5553 124° Southeast 480 552 39,000  Level Miami Center
12:40PM 20.4517 -69.4378 125° Southeast 480 552 39,000  Level Miami Center
12:41PM 20.3753 -69.3206 125° Southeast 480 552 39,000  Level Miami Center
12:42PM 20.2986 -69.2011 124° Southeast 480 552 39,000  Level Miami Center
12:43PM 20.2278 -69.0769 121° Southeast 480 552 39,000  Level Miami Center
12:44PM 20.1550 -68.9556 123° Southeast 486 559 39,000  Level Miami Center
12:45PM 20.0822 -68.8319 122° Southeast 492 566 39,000  Level Miami Center
12:46PM 20.0092 -68.7083 122° Southeast 492 566 39,000  Level Miami Center
12:47PM 19.9425 -68.5869 120° Southeast 485 558 39,000  Level Miami Center
12:48PM 19.8672 -68.4639 123° Southeast 485 558 39,000  Level Miami Center
12:49PM 19.7942 -68.3408 122° Southeast 490 564 39,000  Level Miami Center
12:50PM 19.7208 -68.2178 122° Southeast 490 564 39,000  Level Miami Center
12:51PM 19.6514 -68.0906 120° Southeast 490 564 39,000 -1,080 Level Miami Center
12:52PM 19.5742 -67.9725 125° Southeast 496 571 36,900 -2,340 Descending Miami Center
12:53PM 19.5067 -67.8472 120° Southeast 491 565 34,400 1,020 Descending Miami Center
12:54PM 19.4403 -67.7397 123° Southeast 472 543 39,000 -1,980 Climbing Miami Center
12:56PM 19.3333 -67.5833 126° Southeast 440 506 29,700 -4,680 Descending San Juan Center
12:57PM 19.2667 -67.4667 121° Southeast 430 495 27,900 -1,800 Descending San Juan Center
12:58PM 19.2167 -67.3667 118° Southeast 410 472 26,200 -1,800 Descending San Juan Center
12:59PM 19.1500 -67.2667 125° Southeast 390 449 24,300 -1,800 Descending San Juan Center
01:00PM 19.1000 -67.1833 122° Southeast 380 437 22,600 -1,680 Descending San Juan Center
01:01PM 19.0333 -67.0833 125° Southeast 370 426 21,000 -1,740 Descending San Juan Center
01:02PM 18.9833 -67.0000 122° Southeast 370 426 19,100 -1,800 Descending San Juan Center
01:03PM 18.9167 -66.9000 125° Southeast 360 414 17,400 -1,860 Descending San Juan Center
01:04PM 18.8667 -66.8167 122° Southeast 340 391 15,400 -1,920 Descending San Juan Center
01:05PM 18.8167 -66.7333 122° Southeast 330 380 13,600 -1,800 Descending San Juan Center
01:06PM 18.7833 -66.6667 118° Southeast 310 357 11,900 -1,620 Descending San Juan Center
01:07PM 18.7333 -66.5833 122° Southeast 300 345 10,400 -1,380 Descending San Juan Center
01:08PM 18.6833 -66.5167 128° Southeast 280 322 9,200 -1,320 Descending San Juan Center
01:09PM 18.6333 -66.4667 137° Southeast 270 311 7,800 -1,320 Descending San Juan Center
01:10PM 18.5833 -66.4000 128° Southeast 250 288 6,600 -1,320 Descending San Juan Center
01:11PM 18.5333 -66.3500 137° Southeast 250 288 5,200 -1,320 Descending San Juan Center
01:12PM 18.5000 -66.3000 125° Southeast 240 276 4,000 -780 Descending San Juan Center
01:13PM 18.4667 -66.2500 125° Southeast 200 230 3,700 -480 Descending San Juan Center
01:14PM 18.4333 -66.2000 125° Southeast 160 184 3,100 -780 Descending San Juan Center
01:15PM 18.4333 -66.1667 90° East 160 184 2,200 -600 Descending San Juan Center
01:16PM 18.4333 -66.1167 90° East 160 184 1,900 -480 Descending San Juan Center
01:17PM 18.4333 -66.0667 90° East 130 150 1,300 -600 Descending San Juan Center
01:18PM 18.4167 -66.0333 118° Southeast 120 138 800 -540 Descending San Juan Center